sensor_id;sensor_type;location;lat;lon;timestamp;P1;P2;P0
69224;PMS1003;56333;51.306;17.056;2023-05-10T00:00:37;9.00;5.80;
69224;PMS1003;56333;51.306;17.056;2023-05-10T00:02:07;8.30;6.40;
69224;PMS1003;56333;51.306;17.056;2023-05-10T00:03:37;8.60;6.40;
69224;PMS1003;56333;51.306;17.056;2023-05-10T00:05:08;8.80;6.20;
69224;PMS1003;56333;51.306;17.056;2023-05-10T00:06:36;7.80;6.20;
69224;PMS1003;56333;51.306;17.056;2023-05-10T00:08:05;7.90;5.90;
69224;PMS1003;56333;51.306;17.056;2023-05-10T00:09:35;8.70;6.20;
69224;PMS1003;56333;51.306;17.056;2023-05-10T00:11:05;8.80;6.30;
69224;PMS1003;56333;51.306;17.056;2023-05-10T00:12:34;8.70;6.50;
69224;PMS1003;56333;51.306;17.056;2023-05-10T00:14:03;12.40;6.50;
69224;PMS1003;56333;51.306;17.056;2023-05-10T00:15:32;7.90;6.00;
69224;PMS1003;56333;51.306;17.056;2023-05-10T00:17:02;8.50;6.30;
69224;PMS1003;56333;51.306;17.056;2023-05-10T00:18:31;8.80;6.40;
69224;PMS1003;56333;51.306;17.056;2023-05-10T00:20:01;9.60;6.50;
69224;PMS1003;56333;51.306;17.056;2023-05-10T00:21:31;8.80;6.20;
69224;PMS1003;56333;51.306;17.056;2023-05-10T00:23:00;8.60;6.40;
69224;PMS1003;56333;51.306;17.056;2023-05-10T00:24:29;11.20;6.60;
69224;PMS1003;56333;51.306;17.056;2023-05-10T00:25:58;8.50;6.60;
69224;PMS1003;56333;51.306;17.056;2023-05-10T00:27:28;9.80;6.80;
69224;PMS1003;56333;51.306;17.056;2023-05-10T00:28:57;9.90;6.60;
69224;PMS1003;56333;51.306;17.056;2023-05-10T00:30:26;8.60;6.20;
69224;PMS1003;56333;51.306;17.056;2023-05-10T00:31:55;8.50;6.50;
69224;PMS1003;56333;51.306;17.056;2023-05-10T00:33:24;8.40;6.00;
69224;PMS1003;56333;51.306;17.056;2023-05-10T00:34:53;8.10;6.10;
69224;PMS1003;56333;51.306;17.056;2023-05-10T00:36:22;7.60;6.40;
69224;PMS1003;56333;51.306;17.056;2023-05-10T00:37:55;9.10;6.40;
69224;PMS1003;56333;51.306;17.056;2023-05-10T00:39:25;7.90;6.20;
69224;PMS1003;56333;51.306;17.056;2023-05-10T00:40:55;8.40;6.60;
69224;PMS1003;56333;51.306;17.056;2023-05-10T00:42:28;9.60;6.30;
69224;PMS1003;56333;51.306;17.056;2023-05-10T00:43:57;8.60;6.20;
69224;PMS1003;56333;51.306;17.056;2023-05-10T00:45:27;10.30;6.80;
69224;PMS1003;56333;51.306;17.056;2023-05-10T00:46:56;7.90;6.30;
69224;PMS1003;56333;51.306;17.056;2023-05-10T00:48:26;9.00;6.70;
69224;PMS1003;56333;51.306;17.056;2023-05-10T00:49:56;9.10;6.40;
69224;PMS1003;56333;51.306;17.056;2023-05-10T00:51:27;8.00;6.40;
69224;PMS1003;56333;51.306;17.056;2023-05-10T00:52:57;10.10;6.80;
69224;PMS1003;56333;51.306;17.056;2023-05-10T00:54:26;9.10;6.40;
69224;PMS1003;56333;51.306;17.056;2023-05-10T00:55:56;9.10;6.50;
69224;PMS1003;56333;51.306;17.056;2023-05-10T00:57:26;8.70;6.40;
69224;PMS1003;56333;51.306;17.056;2023-05-10T00:58:57;8.20;6.10;
69224;PMS1003;56333;51.306;17.056;2023-05-10T01:00:26;8.20;6.00;
69224;PMS1003;56333;51.306;17.056;2023-05-10T01:01:55;9.80;6.40;
69224;PMS1003;56333;51.306;17.056;2023-05-10T01:03:24;10.60;6.60;
69224;PMS1003;56333;51.306;17.056;2023-05-10T01:04:53;10.40;6.50;
69224;PMS1003;56333;51.306;17.056;2023-05-10T01:06:23;9.30;6.60;
69224;PMS1003;56333;51.306;17.056;2023-05-10T01:07:52;9.70;6.80;
69224;PMS1003;56333;51.306;17.056;2023-05-10T01:09:22;9.10;7.10;
69224;PMS1003;56333;51.306;17.056;2023-05-10T01:10:51;9.60;7.20;
69224;PMS1003;56333;51.306;17.056;2023-05-10T01:12:20;8.50;7.00;
69224;PMS1003;56333;51.306;17.056;2023-05-10T01:13:54;8.70;6.40;
69224;PMS1003;56333;51.306;17.056;2023-05-10T01:15:24;8.40;6.60;
69224;PMS1003;56333;51.306;17.056;2023-05-10T01:16:54;7.80;6.90;
69224;PMS1003;56333;51.306;17.056;2023-05-10T01:18:23;8.80;6.70;
69224;PMS1003;56333;51.306;17.056;2023-05-10T01:19:53;8.30;6.80;
69224;PMS1003;56333;51.306;17.056;2023-05-10T01:21:32;9.30;6.70;
69224;PMS1003;56333;51.306;17.056;2023-05-10T01:23:34;8.40;6.80;
69224;PMS1003;56333;51.306;17.056;2023-05-10T01:25:28;10.20;6.50;
69224;PMS1003;56333;51.306;17.056;2023-05-10T01:27:21;9.00;6.00;
69224;PMS1003;56333;51.306;17.056;2023-05-10T01:29:16;9.80;6.70;
69224;PMS1003;56333;51.306;17.056;2023-05-10T01:31:21;7.90;6.40;
69224;PMS1003;56333;51.306;17.056;2023-05-10T01:32:59;9.90;6.70;
69224;PMS1003;56333;51.306;17.056;2023-05-10T01:34:34;8.40;6.90;
69224;PMS1003;56333;51.306;17.056;2023-05-10T01:36:08;8.30;6.80;
69224;PMS1003;56333;51.306;17.056;2023-05-10T01:37:47;8.90;6.60;
69224;PMS1003;56333;51.306;17.056;2023-05-10T01:39:24;8.40;6.60;
69224;PMS1003;56333;51.306;17.056;2023-05-10T01:41:07;8.70;6.70;
69224;PMS1003;56333;51.306;17.056;2023-05-10T01:42:50;9.20;6.90;
69224;PMS1003;56333;51.306;17.056;2023-05-10T01:44:27;8.40;6.70;
69224;PMS1003;56333;51.306;17.056;2023-05-10T01:46:05;8.50;6.50;
69224;PMS1003;56333;51.306;17.056;2023-05-10T01:47:40;9.40;6.00;
69224;PMS1003;56333;51.306;17.056;2023-05-10T01:49:14;9.40;6.50;
69224;PMS1003;56333;51.306;17.056;2023-05-10T01:50:47;8.50;6.10;
69224;PMS1003;56333;51.306;17.056;2023-05-10T01:52:18;7.70;6.30;
69224;PMS1003;56333;51.306;17.056;2023-05-10T01:53:54;9.10;6.40;
69224;PMS1003;56333;51.306;17.056;2023-05-10T01:55:29;8.50;5.90;
69224;PMS1003;56333;51.306;17.056;2023-05-10T01:57:06;8.20;5.70;
69224;PMS1003;56333;51.306;17.056;2023-05-10T01:58:42;8.40;6.10;
69224;PMS1003;56333;51.306;17.056;2023-05-10T02:00:14;9.00;6.30;
69224;PMS1003;56333;51.306;17.056;2023-05-10T02:01:46;8.90;6.00;
69224;PMS1003;56333;51.306;17.056;2023-05-10T02:04:45;9.20;5.90;
69224;PMS1003;56333;51.306;17.056;2023-05-10T02:06:16;8.00;6.20;
69224;PMS1003;56333;51.306;17.056;2023-05-10T02:07:46;10.10;6.40;
69224;PMS1003;56333;51.306;17.056;2023-05-10T02:09:15;9.40;5.90;
69224;PMS1003;56333;51.306;17.056;2023-05-10T02:10:46;11.30;6.70;
69224;PMS1003;56333;51.306;17.056;2023-05-10T02:12:17;8.00;6.80;
69224;PMS1003;56333;51.306;17.056;2023-05-10T02:13:48;8.50;6.10;
69224;PMS1003;56333;51.306;17.056;2023-05-10T02:15:22;9.60;6.50;
69224;PMS1003;56333;51.306;17.056;2023-05-10T02:16:52;9.80;6.90;
69224;PMS1003;56333;51.306;17.056;2023-05-10T02:18:23;10.30;7.30;
69224;PMS1003;56333;51.306;17.056;2023-05-10T02:19:52;11.10;7.50;
69224;PMS1003;56333;51.306;17.056;2023-05-10T02:21:22;11.70;8.10;
69224;PMS1003;56333;51.306;17.056;2023-05-10T02:22:53;11.10;7.50;
69224;PMS1003;56333;51.306;17.056;2023-05-10T02:25:51;9.50;6.20;
69224;PMS1003;56333;51.306;17.056;2023-05-10T02:27:21;10.00;6.40;
69224;PMS1003;56333;51.306;17.056;2023-05-10T02:28:52;9.10;6.80;
69224;PMS1003;56333;51.306;17.056;2023-05-10T02:30:23;8.60;6.30;
69224;PMS1003;56333;51.306;17.056;2023-05-10T02:31:52;9.20;6.90;
69224;PMS1003;56333;51.306;17.056;2023-05-10T02:33:23;10.80;7.20;
69224;PMS1003;56333;51.306;17.056;2023-05-10T02:34:53;10.40;7.40;
69224;PMS1003;56333;51.306;17.056;2023-05-10T02:36:24;11.50;7.90;
69224;PMS1003;56333;51.306;17.056;2023-05-10T02:37:54;11.80;7.90;
69224;PMS1003;56333;51.306;17.056;2023-05-10T02:39:26;12.30;8.40;
69224;PMS1003;56333;51.306;17.056;2023-05-10T02:40:56;11.90;7.80;
69224;PMS1003;56333;51.306;17.056;2023-05-10T02:42:27;11.30;7.60;
69224;PMS1003;56333;51.306;17.056;2023-05-10T02:44:01;11.50;7.10;
69224;PMS1003;56333;51.306;17.056;2023-05-10T02:45:32;10.40;7.20;
69224;PMS1003;56333;51.306;17.056;2023-05-10T02:47:04;11.30;8.90;
69224;PMS1003;56333;51.306;17.056;2023-05-10T02:48:34;13.90;10.10;
69224;PMS1003;56333;51.306;17.056;2023-05-10T02:50:05;13.20;9.40;
69224;PMS1003;56333;51.306;17.056;2023-05-10T02:51:37;15.60;9.60;
69224;PMS1003;56333;51.306;17.056;2023-05-10T02:53:14;14.60;8.90;
69224;PMS1003;56333;51.306;17.056;2023-05-10T02:54:50;15.70;9.90;
69224;PMS1003;56333;51.306;17.056;2023-05-10T02:56:28;13.30;8.00;
69224;PMS1003;56333;51.306;17.056;2023-05-10T02:58:01;14.50;8.70;
69224;PMS1003;56333;51.306;17.056;2023-05-10T02:59:30;14.60;9.60;
69224;PMS1003;56333;51.306;17.056;2023-05-10T03:01:00;15.60;9.40;
69224;PMS1003;56333;51.306;17.056;2023-05-10T03:02:29;19.90;11.20;
69224;PMS1003;56333;51.306;17.056;2023-05-10T03:03:59;21.40;14.60;
69224;PMS1003;56333;51.306;17.056;2023-05-10T03:05:27;16.30;12.20;
69224;PMS1003;56333;51.306;17.056;2023-05-10T03:06:58;20.60;15.20;
69224;PMS1003;56333;51.306;17.056;2023-05-10T03:08:27;22.30;16.70;
69224;PMS1003;56333;51.306;17.056;2023-05-10T03:09:56;23.10;16.70;
69224;PMS1003;56333;51.306;17.056;2023-05-10T03:11:43;20.90;15.50;
69224;PMS1003;56333;51.306;17.056;2023-05-10T03:13:28;20.90;15.00;
69224;PMS1003;56333;51.306;17.056;2023-05-10T03:15:13;21.90;15.20;
69224;PMS1003;56333;51.306;17.056;2023-05-10T03:17:01;15.60;10.90;
69224;PMS1003;56333;51.306;17.056;2023-05-10T03:18:44;10.20;7.70;
69224;PMS1003;56333;51.306;17.056;2023-05-10T03:20:22;11.10;7.50;
69224;PMS1003;56333;51.306;17.056;2023-05-10T03:21:54;11.00;7.10;
69224;PMS1003;56333;51.306;17.056;2023-05-10T03:23:35;10.90;7.10;
69224;PMS1003;56333;51.306;17.056;2023-05-10T03:25:12;10.20;7.40;
69224;PMS1003;56333;51.306;17.056;2023-05-10T03:26:44;10.50;7.50;
69224;PMS1003;56333;51.306;17.056;2023-05-10T03:28:17;13.60;10.30;
69224;PMS1003;56333;51.306;17.056;2023-05-10T03:29:47;16.50;11.60;
69224;PMS1003;56333;51.306;17.056;2023-05-10T03:31:18;19.30;12.40;
69224;PMS1003;56333;51.306;17.056;2023-05-10T03:32:47;13.50;8.90;
69224;PMS1003;56333;51.306;17.056;2023-05-10T03:34:17;12.80;8.50;
69224;PMS1003;56333;51.306;17.056;2023-05-10T03:35:52;10.50;7.50;
69224;PMS1003;56333;51.306;17.056;2023-05-10T03:37:20;10.20;7.30;
69224;PMS1003;56333;51.306;17.056;2023-05-10T03:38:50;9.70;6.60;
69224;PMS1003;56333;51.306;17.056;2023-05-10T03:40:19;9.90;6.60;
69224;PMS1003;56333;51.306;17.056;2023-05-10T03:41:48;10.90;6.70;
69224;PMS1003;56333;51.306;17.056;2023-05-10T03:43:17;11.70;7.60;
69224;PMS1003;56333;51.306;17.056;2023-05-10T03:44:45;9.30;7.00;
69224;PMS1003;56333;51.306;17.056;2023-05-10T03:46:15;10.60;6.60;
69224;PMS1003;56333;51.306;17.056;2023-05-10T03:47:44;11.20;6.90;
69224;PMS1003;56333;51.306;17.056;2023-05-10T03:49:14;10.40;7.10;
69224;PMS1003;56333;51.306;17.056;2023-05-10T03:50:43;9.70;7.00;
69224;PMS1003;56333;51.306;17.056;2023-05-10T03:52:12;8.90;6.80;
69224;PMS1003;56333;51.306;17.056;2023-05-10T03:53:42;10.70;6.60;
69224;PMS1003;56333;51.306;17.056;2023-05-10T03:55:11;9.70;6.50;
69224;PMS1003;56333;51.306;17.056;2023-05-10T03:56:40;10.20;6.60;
69224;PMS1003;56333;51.306;17.056;2023-05-10T03:58:11;9.50;6.60;
69224;PMS1003;56333;51.306;17.056;2023-05-10T03:59:41;9.90;6.90;
69224;PMS1003;56333;51.306;17.056;2023-05-10T04:01:11;9.00;6.50;
69224;PMS1003;56333;51.306;17.056;2023-05-10T04:02:41;9.90;6.90;
69224;PMS1003;56333;51.306;17.056;2023-05-10T04:04:15;11.20;7.90;
69224;PMS1003;56333;51.306;17.056;2023-05-10T04:05:45;19.10;12.70;
69224;PMS1003;56333;51.306;17.056;2023-05-10T04:07:14;14.90;10.70;
69224;PMS1003;56333;51.306;17.056;2023-05-10T04:08:43;10.80;7.60;
69224;PMS1003;56333;51.306;17.056;2023-05-10T04:10:13;11.40;7.40;
69224;PMS1003;56333;51.306;17.056;2023-05-10T04:11:43;10.00;7.10;
69224;PMS1003;56333;51.306;17.056;2023-05-10T04:13:12;9.50;6.30;
69224;PMS1003;56333;51.306;17.056;2023-05-10T04:14:41;9.70;6.60;
69224;PMS1003;56333;51.306;17.056;2023-05-10T04:16:10;11.10;7.80;
69224;PMS1003;56333;51.306;17.056;2023-05-10T04:17:40;9.50;6.10;
69224;PMS1003;56333;51.306;17.056;2023-05-10T04:19:09;11.30;5.90;
69224;PMS1003;56333;51.306;17.056;2023-05-10T04:20:38;8.20;5.60;
69224;PMS1003;56333;51.306;17.056;2023-05-10T04:22:07;8.20;5.30;
69224;PMS1003;56333;51.306;17.056;2023-05-10T04:23:36;9.10;5.80;
69224;PMS1003;56333;51.306;17.056;2023-05-10T04:25:07;9.50;5.90;
69224;PMS1003;56333;51.306;17.056;2023-05-10T04:28:04;10.40;6.10;
69224;PMS1003;56333;51.306;17.056;2023-05-10T04:29:33;9.40;6.10;
69224;PMS1003;56333;51.306;17.056;2023-05-10T04:31:08;8.90;5.90;
69224;PMS1003;56333;51.306;17.056;2023-05-10T04:32:38;8.30;6.00;
69224;PMS1003;56333;51.306;17.056;2023-05-10T04:34:06;7.90;5.80;
69224;PMS1003;56333;51.306;17.056;2023-05-10T04:35:36;7.90;5.70;
69224;PMS1003;56333;51.306;17.056;2023-05-10T04:37:05;8.50;5.60;
69224;PMS1003;56333;51.306;17.056;2023-05-10T04:38:37;8.30;6.00;
69224;PMS1003;56333;51.306;17.056;2023-05-10T04:40:09;7.90;5.70;
69224;PMS1003;56333;51.306;17.056;2023-05-10T04:41:39;9.20;5.30;
69224;PMS1003;56333;51.306;17.056;2023-05-10T04:43:08;7.70;5.30;
69224;PMS1003;56333;51.306;17.056;2023-05-10T04:44:37;7.90;5.10;
69224;PMS1003;56333;51.306;17.056;2023-05-10T04:46:07;7.70;5.30;
69224;PMS1003;56333;51.306;17.056;2023-05-10T04:47:37;8.60;5.50;
69224;PMS1003;56333;51.306;17.056;2023-05-10T04:49:05;8.60;5.80;
69224;PMS1003;56333;51.306;17.056;2023-05-10T04:50:34;10.00;6.30;
69224;PMS1003;56333;51.306;17.056;2023-05-10T04:52:03;8.80;5.90;
69224;PMS1003;56333;51.306;17.056;2023-05-10T04:53:32;6.90;5.00;
69224;PMS1003;56333;51.306;17.056;2023-05-10T04:55:01;8.30;5.60;
69224;PMS1003;56333;51.306;17.056;2023-05-10T04:56:30;9.70;5.30;
69224;PMS1003;56333;51.306;17.056;2023-05-10T04:57:59;8.30;5.30;
69224;PMS1003;56333;51.306;17.056;2023-05-10T04:59:28;7.90;5.40;
69224;PMS1003;56333;51.306;17.056;2023-05-10T05:00:59;7.10;5.20;
69224;PMS1003;56333;51.306;17.056;2023-05-10T05:02:33;7.70;5.50;
69224;PMS1003;56333;51.306;17.056;2023-05-10T05:04:03;6.90;5.00;
69224;PMS1003;56333;51.306;17.056;2023-05-10T05:05:32;7.10;5.30;
69224;PMS1003;56333;51.306;17.056;2023-05-10T05:07:01;7.90;5.10;
69224;PMS1003;56333;51.306;17.056;2023-05-10T05:08:30;9.50;5.40;
69224;PMS1003;56333;51.306;17.056;2023-05-10T05:09:59;11.50;5.80;
69224;PMS1003;56333;51.306;17.056;2023-05-10T05:11:29;8.00;5.20;
69224;PMS1003;56333;51.306;17.056;2023-05-10T05:12:58;8.40;4.90;
69224;PMS1003;56333;51.306;17.056;2023-05-10T05:14:27;7.50;5.40;
69224;PMS1003;56333;51.306;17.056;2023-05-10T05:15:56;10.80;5.60;
69224;PMS1003;56333;51.306;17.056;2023-05-10T05:17:27;8.90;5.60;
69224;PMS1003;56333;51.306;17.056;2023-05-10T05:18:55;6.30;5.10;
69224;PMS1003;56333;51.306;17.056;2023-05-10T05:20:25;9.40;5.20;
69224;PMS1003;56333;51.306;17.056;2023-05-10T05:21:54;6.70;4.90;
69224;PMS1003;56333;51.306;17.056;2023-05-10T05:23:22;7.40;4.80;
69224;PMS1003;56333;51.306;17.056;2023-05-10T05:24:53;7.60;4.90;
69224;PMS1003;56333;51.306;17.056;2023-05-10T05:26:21;6.10;4.50;
69224;PMS1003;56333;51.306;17.056;2023-05-10T05:27:50;6.30;5.10;
69224;PMS1003;56333;51.306;17.056;2023-05-10T05:29:20;7.20;5.10;
69224;PMS1003;56333;51.306;17.056;2023-05-10T05:30:48;7.80;4.80;
69224;PMS1003;56333;51.306;17.056;2023-05-10T05:32:18;7.20;4.70;
69224;PMS1003;56333;51.306;17.056;2023-05-10T05:33:47;8.80;4.70;
69224;PMS1003;56333;51.306;17.056;2023-05-10T05:35:16;5.50;4.60;
69224;PMS1003;56333;51.306;17.056;2023-05-10T05:36:45;7.20;4.70;
69224;PMS1003;56333;51.306;17.056;2023-05-10T05:38:14;7.00;4.90;
69224;PMS1003;56333;51.306;17.056;2023-05-10T05:39:43;6.70;5.10;
69224;PMS1003;56333;51.306;17.056;2023-05-10T05:41:13;6.70;4.70;
69224;PMS1003;56333;51.306;17.056;2023-05-10T05:42:42;8.00;4.70;
69224;PMS1003;56333;51.306;17.056;2023-05-10T05:44:11;7.10;4.00;
69224;PMS1003;56333;51.306;17.056;2023-05-10T05:45:39;7.80;5.20;
69224;PMS1003;56333;51.306;17.056;2023-05-10T05:47:09;7.80;4.50;
69224;PMS1003;56333;51.306;17.056;2023-05-10T05:48:37;6.40;4.50;
69224;PMS1003;56333;51.306;17.056;2023-05-10T05:50:07;7.20;4.70;
69224;PMS1003;56333;51.306;17.056;2023-05-10T05:51:37;7.20;4.50;
69224;PMS1003;56333;51.306;17.056;2023-05-10T05:53:06;7.00;4.30;
69224;PMS1003;56333;51.306;17.056;2023-05-10T05:54:35;6.90;4.70;
69224;PMS1003;56333;51.306;17.056;2023-05-10T05:56:04;6.80;4.70;
69224;PMS1003;56333;51.306;17.056;2023-05-10T05:57:37;6.30;5.00;
69224;PMS1003;56333;51.306;17.056;2023-05-10T05:59:05;8.20;4.70;
69224;PMS1003;56333;51.306;17.056;2023-05-10T06:00:34;6.30;4.80;
69224;PMS1003;56333;51.306;17.056;2023-05-10T06:02:04;7.20;4.60;
69224;PMS1003;56333;51.306;17.056;2023-05-10T06:03:33;7.10;4.50;
69224;PMS1003;56333;51.306;17.056;2023-05-10T06:05:03;9.30;5.30;
69224;PMS1003;56333;51.306;17.056;2023-05-10T06:06:33;8.00;5.50;
69224;PMS1003;56333;51.306;17.056;2023-05-10T06:08:03;6.40;4.60;
69224;PMS1003;56333;51.306;17.056;2023-05-10T06:09:33;6.70;5.00;
69224;PMS1003;56333;51.306;17.056;2023-05-10T06:11:02;6.60;5.00;
69224;PMS1003;56333;51.306;17.056;2023-05-10T06:12:31;8.70;4.70;
69224;PMS1003;56333;51.306;17.056;2023-05-10T06:14:00;7.10;4.70;
69224;PMS1003;56333;51.306;17.056;2023-05-10T06:15:29;7.60;4.70;
69224;PMS1003;56333;51.306;17.056;2023-05-10T06:16:59;7.80;4.60;
69224;PMS1003;56333;51.306;17.056;2023-05-10T06:18:29;9.00;4.70;
69224;PMS1003;56333;51.306;17.056;2023-05-10T06:19:58;6.20;4.70;
69224;PMS1003;56333;51.306;17.056;2023-05-10T06:21:28;6.80;4.60;
69224;PMS1003;56333;51.306;17.056;2023-05-10T06:22:57;8.90;5.30;
69224;PMS1003;56333;51.306;17.056;2023-05-10T06:24:26;6.80;4.30;
69224;PMS1003;56333;51.306;17.056;2023-05-10T06:25:55;6.60;4.40;
69224;PMS1003;56333;51.306;17.056;2023-05-10T06:27:24;6.90;4.20;
69224;PMS1003;56333;51.306;17.056;2023-05-10T06:28:55;6.60;4.30;
69224;PMS1003;56333;51.306;17.056;2023-05-10T06:30:25;7.30;4.40;
69224;PMS1003;56333;51.306;17.056;2023-05-10T06:31:54;6.10;4.10;
69224;PMS1003;56333;51.306;17.056;2023-05-10T06:33:25;8.60;4.40;
69224;PMS1003;56333;51.306;17.056;2023-05-10T06:34:56;6.40;4.50;
69224;PMS1003;56333;51.306;17.056;2023-05-10T06:36:25;7.50;3.80;
69224;PMS1003;56333;51.306;17.056;2023-05-10T06:37:54;8.00;4.40;
69224;PMS1003;56333;51.306;17.056;2023-05-10T06:39:23;7.10;4.30;
69224;PMS1003;56333;51.306;17.056;2023-05-10T06:40:53;9.10;4.40;
69224;PMS1003;56333;51.306;17.056;2023-05-10T06:42:23;7.30;4.50;
69224;PMS1003;56333;51.306;17.056;2023-05-10T06:43:53;9.30;4.60;
69224;PMS1003;56333;51.306;17.056;2023-05-10T06:45:22;8.80;4.50;
69224;PMS1003;56333;51.306;17.056;2023-05-10T06:46:51;8.30;4.10;
69224;PMS1003;56333;51.306;17.056;2023-05-10T06:48:21;7.10;4.20;
69224;PMS1003;56333;51.306;17.056;2023-05-10T06:49:51;6.50;4.10;
69224;PMS1003;56333;51.306;17.056;2023-05-10T06:51:21;7.20;4.40;
69224;PMS1003;56333;51.306;17.056;2023-05-10T06:52:50;6.10;4.10;
69224;PMS1003;56333;51.306;17.056;2023-05-10T06:54:19;7.70;4.30;
69224;PMS1003;56333;51.306;17.056;2023-05-10T06:55:50;5.80;4.00;
69224;PMS1003;56333;51.306;17.056;2023-05-10T06:57:19;7.80;4.40;
69224;PMS1003;56333;51.306;17.056;2023-05-10T06:58:48;6.90;4.20;
69224;PMS1003;56333;51.306;17.056;2023-05-10T07:00:19;6.10;4.00;
69224;PMS1003;56333;51.306;17.056;2023-05-10T07:01:48;6.80;3.80;
69224;PMS1003;56333;51.306;17.056;2023-05-10T07:03:17;7.10;4.00;
69224;PMS1003;56333;51.306;17.056;2023-05-10T07:04:48;7.20;4.00;
69224;PMS1003;56333;51.306;17.056;2023-05-10T07:06:17;5.60;3.70;
69224;PMS1003;56333;51.306;17.056;2023-05-10T07:07:47;6.90;4.00;
69224;PMS1003;56333;51.306;17.056;2023-05-10T07:09:16;6.50;3.90;
69224;PMS1003;56333;51.306;17.056;2023-05-10T07:10:45;4.80;3.70;
69224;PMS1003;56333;51.306;17.056;2023-05-10T07:12:14;7.90;4.50;
69224;PMS1003;56333;51.306;17.056;2023-05-10T07:13:47;7.80;4.10;
69224;PMS1003;56333;51.306;17.056;2023-05-10T07:15:15;5.30;3.60;
69224;PMS1003;56333;51.306;17.056;2023-05-10T07:16:44;5.10;3.60;
69224;PMS1003;56333;51.306;17.056;2023-05-10T07:18:17;8.50;3.70;
69224;PMS1003;56333;51.306;17.056;2023-05-10T07:19:46;5.30;3.70;
69224;PMS1003;56333;51.306;17.056;2023-05-10T07:21:15;4.90;3.60;
69224;PMS1003;56333;51.306;17.056;2023-05-10T07:22:45;5.70;3.40;
69224;PMS1003;56333;51.306;17.056;2023-05-10T07:24:14;9.40;3.50;
69224;PMS1003;56333;51.306;17.056;2023-05-10T07:25:43;5.70;3.50;
69224;PMS1003;56333;51.306;17.056;2023-05-10T07:27:13;6.30;3.40;
69224;PMS1003;56333;51.306;17.056;2023-05-10T07:28:42;8.50;3.50;
69224;PMS1003;56333;51.306;17.056;2023-05-10T07:30:13;5.00;3.10;
69224;PMS1003;56333;51.306;17.056;2023-05-10T07:31:43;7.40;3.30;
69224;PMS1003;56333;51.306;17.056;2023-05-10T07:33:13;13.30;3.70;
69224;PMS1003;56333;51.306;17.056;2023-05-10T07:34:45;8.60;3.30;
69224;PMS1003;56333;51.306;17.056;2023-05-10T07:36:14;3.90;3.20;
69224;PMS1003;56333;51.306;17.056;2023-05-10T07:37:43;6.50;3.50;
69224;PMS1003;56333;51.306;17.056;2023-05-10T07:39:15;5.40;3.20;
69224;PMS1003;56333;51.306;17.056;2023-05-10T07:40:44;4.70;3.50;
69224;PMS1003;56333;51.306;17.056;2023-05-10T07:42:13;5.10;3.40;
69224;PMS1003;56333;51.306;17.056;2023-05-10T07:43:42;4.30;3.30;
69224;PMS1003;56333;51.306;17.056;2023-05-10T07:45:16;6.00;3.40;
69224;PMS1003;56333;51.306;17.056;2023-05-10T07:46:45;5.20;3.50;
69224;PMS1003;56333;51.306;17.056;2023-05-10T07:48:15;6.50;3.30;
69224;PMS1003;56333;51.306;17.056;2023-05-10T07:49:43;6.40;3.50;
69224;PMS1003;56333;51.306;17.056;2023-05-10T07:51:13;5.70;3.20;
69224;PMS1003;56333;51.306;17.056;2023-05-10T07:52:42;5.70;3.20;
69224;PMS1003;56333;51.306;17.056;2023-05-10T07:54:11;5.50;3.40;
69224;PMS1003;56333;51.306;17.056;2023-05-10T07:55:40;5.20;3.30;
69224;PMS1003;56333;51.306;17.056;2023-05-10T07:57:09;4.70;3.20;
69224;PMS1003;56333;51.306;17.056;2023-05-10T07:58:40;5.80;2.90;
69224;PMS1003;56333;51.306;17.056;2023-05-10T08:00:14;8.10;3.30;
69224;PMS1003;56333;51.306;17.056;2023-05-10T08:01:46;9.80;3.30;
69224;PMS1003;56333;51.306;17.056;2023-05-10T08:03:15;5.40;3.50;
69224;PMS1003;56333;51.306;17.056;2023-05-10T08:04:44;6.90;3.30;
69224;PMS1003;56333;51.306;17.056;2023-05-10T08:06:14;7.80;3.60;
69224;PMS1003;56333;51.306;17.056;2023-05-10T08:07:44;5.50;3.30;
69224;PMS1003;56333;51.306;17.056;2023-05-10T08:09:13;7.00;3.30;
69224;PMS1003;56333;51.306;17.056;2023-05-10T08:10:41;5.30;3.30;
69224;PMS1003;56333;51.306;17.056;2023-05-10T08:12:10;5.80;3.20;
69224;PMS1003;56333;51.306;17.056;2023-05-10T08:13:39;9.10;3.70;
69224;PMS1003;56333;51.306;17.056;2023-05-10T08:15:11;8.80;3.60;
69224;PMS1003;56333;51.306;17.056;2023-05-10T08:16:40;5.80;3.40;
69224;PMS1003;56333;51.306;17.056;2023-05-10T08:18:09;7.20;3.50;
69224;PMS1003;56333;51.306;17.056;2023-05-10T08:19:38;11.80;3.60;
69224;PMS1003;56333;51.306;17.056;2023-05-10T08:21:08;6.40;3.90;
69224;PMS1003;56333;51.306;17.056;2023-05-10T08:22:39;7.10;3.80;
69224;PMS1003;56333;51.306;17.056;2023-05-10T08:24:09;6.60;3.70;
69224;PMS1003;56333;51.306;17.056;2023-05-10T08:25:38;5.00;4.10;
69224;PMS1003;56333;51.306;17.056;2023-05-10T08:27:07;5.30;3.90;
69224;PMS1003;56333;51.306;17.056;2023-05-10T08:28:36;5.40;3.60;
69224;PMS1003;56333;51.306;17.056;2023-05-10T08:30:08;4.90;3.40;
69224;PMS1003;56333;51.306;17.056;2023-05-10T08:31:38;4.80;3.50;
69224;PMS1003;56333;51.306;17.056;2023-05-10T08:33:08;7.40;3.90;
69224;PMS1003;56333;51.306;17.056;2023-05-10T08:34:37;6.80;3.70;
69224;PMS1003;56333;51.306;17.056;2023-05-10T08:36:06;5.50;3.90;
69224;PMS1003;56333;51.306;17.056;2023-05-10T08:37:35;8.60;4.30;
69224;PMS1003;56333;51.306;17.056;2023-05-10T08:39:04;5.80;4.00;
69224;PMS1003;56333;51.306;17.056;2023-05-10T08:40:34;4.80;3.50;
69224;PMS1003;56333;51.306;17.056;2023-05-10T08:42:05;4.50;3.50;
69224;PMS1003;56333;51.306;17.056;2023-05-10T08:43:37;6.50;3.70;
69224;PMS1003;56333;51.306;17.056;2023-05-10T08:45:10;6.00;3.50;
69224;PMS1003;56333;51.306;17.056;2023-05-10T08:46:42;5.60;3.90;
69224;PMS1003;56333;51.306;17.056;2023-05-10T08:48:15;6.20;3.80;
69224;PMS1003;56333;51.306;17.056;2023-05-10T08:49:45;4.80;3.40;
69224;PMS1003;56333;51.306;17.056;2023-05-10T08:51:19;6.30;3.50;
69224;PMS1003;56333;51.306;17.056;2023-05-10T08:52:50;7.20;3.90;
69224;PMS1003;56333;51.306;17.056;2023-05-10T08:54:20;5.20;3.50;
69224;PMS1003;56333;51.306;17.056;2023-05-10T08:55:49;4.60;3.20;
69224;PMS1003;56333;51.306;17.056;2023-05-10T08:57:18;4.70;3.60;
69224;PMS1003;56333;51.306;17.056;2023-05-10T08:58:48;9.00;3.70;
69224;PMS1003;56333;51.306;17.056;2023-05-10T09:00:19;9.40;4.50;
69224;PMS1003;56333;51.306;17.056;2023-05-10T09:01:51;6.00;3.90;
69224;PMS1003;56333;51.306;17.056;2023-05-10T09:03:21;7.40;4.10;
69224;PMS1003;56333;51.306;17.056;2023-05-10T09:04:50;6.20;3.70;
69224;PMS1003;56333;51.306;17.056;2023-05-10T09:06:19;7.80;3.80;
69224;PMS1003;56333;51.306;17.056;2023-05-10T09:07:49;10.30;3.90;
69224;PMS1003;56333;51.306;17.056;2023-05-10T09:09:18;7.90;3.80;
69224;PMS1003;56333;51.306;17.056;2023-05-10T09:10:49;4.70;3.70;
69224;PMS1003;56333;51.306;17.056;2023-05-10T09:12:18;5.90;3.50;
69224;PMS1003;56333;51.306;17.056;2023-05-10T09:13:48;8.30;3.70;
69224;PMS1003;56333;51.306;17.056;2023-05-10T09:15:19;7.30;3.90;
69224;PMS1003;56333;51.306;17.056;2023-05-10T09:16:48;5.70;3.20;
69224;PMS1003;56333;51.306;17.056;2023-05-10T09:18:18;7.10;3.60;